sensor_id;sensor_type;location;lat;lon;timestamp;pressure;altitude;pressure_sealevel;temperature;humidity
53526;BME280;40551;50.478;19.378;2023-02-14T00:00:36;99644.26;;;2.12;91.05
53526;BME280;40551;50.478;19.378;2023-02-14T00:03:26;99642.98;;;2.08;90.78
53526;BME280;40551;50.478;19.378;2023-02-14T00:05:58;99642.59;;;2.10;90.88
53526;BME280;40551;50.478;19.378;2023-02-14T00:08:34;99642.72;;;2.12;90.71
53526;BME280;40551;50.478;19.378;2023-02-14T00:11:07;99639.98;;;2.12;90.85
53526;BME280;40551;50.478;19.378;2023-02-14T00:13:39;99636.91;;;2.12;90.71
53526;BME280;40551;50.478;19.378;2023-02-14T00:16:31;99640.69;;;2.11;90.68
53526;BME280;40551;50.478;19.378;2023-02-14T00:19:03;99648.23;;;2.10;90.70
53526;BME280;40551;50.478;19.378;2023-02-14T00:21:36;99645.45;;;2.12;90.70
53526;BME280;40551;50.478;19.378;2023-02-14T00:24:10;99646.44;;;2.14;90.83
53526;BME280;40551;50.478;19.378;2023-02-14T00:26:43;99648.61;;;2.16;90.89
53526;BME280;40551;50.478;19.378;2023-02-14T00:29:16;99648.77;;;2.16;90.67
53526;BME280;40551;50.478;19.378;2023-02-14T00:31:48;99649.98;;;2.16;90.77
53526;BME280;40551;50.478;19.378;2023-02-14T00:34:20;99647.73;;;2.16;90.84
53526;BME280;40551;50.478;19.378;2023-02-14T00:36:52;99651.66;;;2.17;90.72
53526;BME280;40551;50.478;19.378;2023-02-14T00:39:24;99656.11;;;2.17;90.66
53526;BME280;40551;50.478;19.378;2023-02-14T00:41:54;99657.13;;;2.17;90.92
53526;BME280;40551;50.478;19.378;2023-02-14T00:44:26;99659.13;;;2.13;90.82
53526;BME280;40551;50.478;19.378;2023-02-14T00:46:58;99662.23;;;2.12;90.62
53526;BME280;40551;50.478;19.378;2023-02-14T00:49:28;99656.77;;;2.12;90.84
53526;BME280;40551;50.478;19.378;2023-02-14T00:52:01;99657.91;;;2.06;91.00
53526;BME280;40551;50.478;19.378;2023-02-14T00:54:33;99658.08;;;2.07;90.85
53526;BME280;40551;50.478;19.378;2023-02-14T00:57:05;99649.85;;;2.07;90.84
53526;BME280;40551;50.478;19.378;2023-02-14T00:59:38;99647.27;;;2.08;90.94
53526;BME280;40551;50.478;19.378;2023-02-14T01:02:09;99649.13;;;2.09;90.98
53526;BME280;40551;50.478;19.378;2023-02-14T01:04:40;99647.36;;;2.05;91.00
53526;BME280;40551;50.478;19.378;2023-02-14T01:07:11;99647.30;;;2.06;91.01
53526;BME280;40551;50.478;19.378;2023-02-14T01:09:44;99642.12;;;2.02;91.20
53526;BME280;40551;50.478;19.378;2023-02-14T01:12:14;99639.67;;;2.04;91.16
53526;BME280;40551;50.478;19.378;2023-02-14T01:14:46;99639.41;;;2.00;91.15
53526;BME280;40551;50.478;19.378;2023-02-14T01:17:21;99636.31;;;2.01;91.18
53526;BME280;40551;50.478;19.378;2023-02-14T01:19:52;99634.95;;;2.01;90.94
53526;BME280;40551;50.478;19.378;2023-02-14T01:22:23;99635.55;;;1.96;91.29
53526;BME280;40551;50.478;19.378;2023-02-14T01:24:53;99635.87;;;1.98;91.10
53526;BME280;40551;50.478;19.378;2023-02-14T01:27:25;99635.44;;;1.94;91.18
53526;BME280;40551;50.478;19.378;2023-02-14T01:29:57;99634.69;;;1.97;91.39
53526;BME280;40551;50.478;19.378;2023-02-14T01:32:32;99632.06;;;1.99;90.95
53526;BME280;40551;50.478;19.378;2023-02-14T01:35:04;99632.39;;;2.00;91.13
53526;BME280;40551;50.478;19.378;2023-02-14T01:37:37;99628.63;;;2.00;91.07
53526;BME280;40551;50.478;19.378;2023-02-14T01:40:13;99626.41;;;1.99;91.09
53526;BME280;40551;50.478;19.378;2023-02-14T01:42:45;99625.40;;;1.99;90.94
53526;BME280;40551;50.478;19.378;2023-02-14T01:45:17;99623.69;;;1.99;91.13
53526;BME280;40551;50.478;19.378;2023-02-14T01:47:52;99628.08;;;1.95;91.20
53526;BME280;40551;50.478;19.378;2023-02-14T01:50:28;99623.44;;;1.95;91.10
53526;BME280;40551;50.478;19.378;2023-02-14T01:53:03;99624.11;;;1.96;91.28
53526;BME280;40551;50.478;19.378;2023-02-14T01:55:42;99622.23;;;1.96;91.31
53526;BME280;40551;50.478;19.378;2023-02-14T01:58:20;99614.02;;;1.96;91.15
53526;BME280;40551;50.478;19.378;2023-02-14T02:00:52;99613.50;;;1.96;91.19
53526;BME280;40551;50.478;19.378;2023-02-14T02:03:33;99612.60;;;1.97;91.20
53526;BME280;40551;50.478;19.378;2023-02-14T02:06:10;99609.02;;;1.97;91.03
53526;BME280;40551;50.478;19.378;2023-02-14T02:08:45;99613.62;;;1.98;91.13
53526;BME280;40551;50.478;19.378;2023-02-14T02:11:19;99612.58;;;1.98;91.18
53526;BME280;40551;50.478;19.378;2023-02-14T02:13:49;99615.67;;;1.98;91.29
53526;BME280;40551;50.478;19.378;2023-02-14T02:16:33;99617.31;;;1.94;91.27
53526;BME280;40551;50.478;19.378;2023-02-14T02:19:40;99613.89;;;1.94;91.22
53526;BME280;40551;50.478;19.378;2023-02-14T02:22:26;99613.39;;;1.93;91.29
53526;BME280;40551;50.478;19.378;2023-02-14T02:25:07;99613.14;;;1.89;91.32
53526;BME280;40551;50.478;19.378;2023-02-14T02:28:02;99612.92;;;1.92;91.36
53526;BME280;40551;50.478;19.378;2023-02-14T02:31:05;99619.27;;;1.91;91.13
53526;BME280;40551;50.478;19.378;2023-02-14T02:34:10;99619.27;;;1.91;91.38
53526;BME280;40551;50.478;19.378;2023-02-14T02:37:07;99620.29;;;1.91;91.25
53526;BME280;40551;50.478;19.378;2023-02-14T02:39:50;99621.79;;;1.93;91.54
53526;BME280;40551;50.478;19.378;2023-02-14T02:42:34;99621.74;;;1.95;91.25
53526;BME280;40551;50.478;19.378;2023-02-14T02:45:12;99619.85;;;1.95;91.14
53526;BME280;40551;50.478;19.378;2023-02-14T02:47:55;99615.20;;;1.97;91.16
53526;BME280;40551;50.478;19.378;2023-02-14T02:50:30;99614.30;;;1.98;91.34
53526;BME280;40551;50.478;19.378;2023-02-14T02:53:24;99609.88;;;1.97;91.13
53526;BME280;40551;50.478;19.378;2023-02-14T02:56:01;99610.18;;;1.98;91.36
53526;BME280;40551;50.478;19.378;2023-02-14T02:58:54;99604.33;;;1.99;91.42
53526;BME280;40551;50.478;19.378;2023-02-14T03:01:30;99605.74;;;1.98;90.89
53526;BME280;40551;50.478;19.378;2023-02-14T03:04:07;99609.35;;;1.98;91.18
53526;BME280;40551;50.478;19.378;2023-02-14T03:06:59;99607.00;;;1.96;91.02
53526;BME280;40551;50.478;19.378;2023-02-14T03:09:50;99605.80;;;1.96;91.29
53526;BME280;40551;50.478;19.378;2023-02-14T03:12:27;99604.61;;;1.95;91.07
53526;BME280;40551;50.478;19.378;2023-02-14T03:15:08;99607.13;;;1.91;91.12
53526;BME280;40551;50.478;19.378;2023-02-14T03:17:48;99604.00;;;1.92;91.07
53526;BME280;40551;50.478;19.378;2023-02-14T03:20:48;99600.42;;;1.92;91.16
53526;BME280;40551;50.478;19.378;2023-02-14T03:23:28;99602.27;;;1.93;91.41
53526;BME280;40551;50.478;19.378;2023-02-14T03:26:08;99603.63;;;1.94;91.20
53526;BME280;40551;50.478;19.378;2023-02-14T03:28:47;99605.30;;;1.95;91.25
53526;BME280;40551;50.478;19.378;2023-02-14T03:31:28;99603.73;;;1.96;91.34
53526;BME280;40551;50.478;19.378;2023-02-14T03:34:09;99605.23;;;1.98;91.40
53526;BME280;40551;50.478;19.378;2023-02-14T03:36:49;99606.25;;;1.98;91.09
53526;BME280;40551;50.478;19.378;2023-02-14T03:39:25;99604.52;;;1.99;90.98
53526;BME280;40551;50.478;19.378;2023-02-14T03:42:02;99603.52;;;1.98;91.19
53526;BME280;40551;50.478;19.378;2023-02-14T03:44:36;99607.23;;;2.00;91.08
53526;BME280;40551;50.478;19.378;2023-02-14T03:47:13;99612.70;;;2.00;91.10
53526;BME280;40551;50.478;19.378;2023-02-14T03:49:47;99608.77;;;2.00;91.01
53526;BME280;40551;50.478;19.378;2023-02-14T03:52:22;99612.42;;;1.98;90.98
53526;BME280;40551;50.478;19.378;2023-02-14T03:54:56;99617.56;;;1.98;91.09
53526;BME280;40551;50.478;19.378;2023-02-14T03:57:34;99617.55;;;1.98;91.22
53526;BME280;40551;50.478;19.378;2023-02-14T04:00:10;99619.46;;;1.97;91.00
53526;BME280;40551;50.478;19.378;2023-02-14T04:02:44;99622.17;;;1.98;91.09
53526;BME280;40551;50.478;19.378;2023-02-14T04:05:20;99615.30;;;1.99;91.18
53526;BME280;40551;50.478;19.378;2023-02-14T04:07:56;99611.54;;;1.99;90.97
53526;BME280;40551;50.478;19.378;2023-02-14T04:10:28;99611.91;;;1.98;91.14
53526;BME280;40551;50.478;19.378;2023-02-14T04:12:59;99611.05;;;1.98;91.21
53526;BME280;40551;50.478;19.378;2023-02-14T04:15:30;99613.27;;;1.98;91.24
53526;BME280;40551;50.478;19.378;2023-02-14T04:18:01;99620.40;;;1.94;91.20
53526;BME280;40551;50.478;19.378;2023-02-14T04:20:51;99620.35;;;1.96;91.30
53526;BME280;40551;50.478;19.378;2023-02-14T04:23:21;99615.71;;;1.96;91.25
53526;BME280;40551;50.478;19.378;2023-02-14T04:25:53;99616.70;;;1.92;91.26
53526;BME280;40551;50.478;19.378;2023-02-14T04:28:23;99614.98;;;1.91;91.31
53526;BME280;40551;50.478;19.378;2023-02-14T04:30:55;99612.91;;;1.85;91.39
53526;BME280;40551;50.478;19.378;2023-02-14T04:33:28;99616.16;;;1.85;91.29
53526;BME280;40551;50.478;19.378;2023-02-14T04:36:00;99623.00;;;1.86;91.24
53526;BME280;40551;50.478;19.378;2023-02-14T04:38:32;99622.14;;;1.86;91.38
53526;BME280;40551;50.478;19.378;2023-02-14T04:41:03;99622.95;;;1.88;91.26
53526;BME280;40551;50.478;19.378;2023-02-14T04:43:35;99625.63;;;1.90;91.31
53526;BME280;40551;50.478;19.378;2023-02-14T04:46:05;99625.58;;;1.91;91.38
53526;BME280;40551;50.478;19.378;2023-02-14T04:48:39;99629.10;;;1.88;91.65
53526;BME280;40551;50.478;19.378;2023-02-14T04:51:11;99629.70;;;1.91;91.50
53526;BME280;40551;50.478;19.378;2023-02-14T04:53:41;99631.67;;;1.95;91.49
53526;BME280;40551;50.478;19.378;2023-02-14T04:56:13;99631.61;;;1.90;91.40
53526;BME280;40551;50.478;19.378;2023-02-14T04:58:43;99636.67;;;1.93;91.15
53526;BME280;40551;50.478;19.378;2023-02-14T05:01:15;99633.85;;;1.89;91.53
53526;BME280;40551;50.478;19.378;2023-02-14T05:03:47;99643.52;;;1.92;91.43
53526;BME280;40551;50.478;19.378;2023-02-14T05:06:19;99640.73;;;1.94;91.39
53526;BME280;40551;50.478;19.378;2023-02-14T05:08:51;99642.92;;;1.96;91.12
53526;BME280;40551;50.478;19.378;2023-02-14T05:11:21;99643.08;;;1.97;91.19
53526;BME280;40551;50.478;19.378;2023-02-14T05:13:53;99640.77;;;1.93;91.48
53526;BME280;40551;50.478;19.378;2023-02-14T05:16:24;99644.83;;;1.95;91.09
53526;BME280;40551;50.478;19.378;2023-02-14T05:18:56;99643.41;;;1.97;91.17
53526;BME280;40551;50.478;19.378;2023-02-14T05:21:26;99643.71;;;1.98;91.09
53526;BME280;40551;50.478;19.378;2023-02-14T05:24:02;99647.40;;;1.95;91.41
53526;BME280;40551;50.478;19.378;2023-02-14T05:26:34;99647.85;;;1.97;91.39
53526;BME280;40551;50.478;19.378;2023-02-14T05:29:04;99652.59;;;1.99;91.41
53526;BME280;40551;50.478;19.378;2023-02-14T05:31:36;99659.36;;;1.96;91.34
53526;BME280;40551;50.478;19.378;2023-02-14T05:34:08;99662.20;;;1.99;91.48
53526;BME280;40551;50.478;19.378;2023-02-14T05:36:39;99660.94;;;2.01;91.34
53526;BME280;40551;50.478;19.378;2023-02-14T05:39:10;99665.52;;;2.03;91.00
53526;BME280;40551;50.478;19.378;2023-02-14T05:41:43;99666.63;;;1.99;91.25
53526;BME280;40551;50.478;19.378;2023-02-14T05:44:15;99663.88;;;2.00;90.93
53526;BME280;40551;50.478;19.378;2023-02-14T05:46:45;99665.74;;;2.01;90.93
53526;BME280;40551;50.478;19.378;2023-02-14T05:49:17;99671.48;;;1.97;91.26
53526;BME280;40551;50.478;19.378;2023-02-14T05:51:49;99671.42;;;1.99;91.04
53526;BME280;40551;50.478;19.378;2023-02-14T05:54:19;99669.69;;;2.00;91.08
53526;BME280;40551;50.478;19.378;2023-02-14T05:56:51;99675.27;;;1.96;91.25
53526;BME280;40551;50.478;19.378;2023-02-14T05:59:21;99673.40;;;1.96;91.03
53526;BME280;40551;50.478;19.378;2023-02-14T06:01:53;99674.90;;;1.90;91.09
53526;BME280;40551;50.478;19.378;2023-02-14T06:04:23;99676.92;;;1.91;91.14
53526;BME280;40551;50.478;19.378;2023-02-14T06:06:55;99670.34;;;1.87;91.24
53526;BME280;40551;50.478;19.378;2023-02-14T06:09:26;99674.44;;;1.88;91.07
53526;BME280;40551;50.478;19.378;2023-02-14T06:11:58;99684.48;;;1.90;90.98
53526;BME280;40551;50.478;19.378;2023-02-14T06:14:30;99682.04;;;1.92;91.12
53526;BME280;40551;50.478;19.378;2023-02-14T06:17:00;99679.77;;;1.93;91.25
53526;BME280;40551;50.478;19.378;2023-02-14T06:19:32;99678.94;;;1.86;91.24
53526;BME280;40551;50.478;19.378;2023-02-14T06:22:04;99682.17;;;1.87;91.12
53526;BME280;40551;50.478;19.378;2023-02-14T06:24:36;99684.05;;;1.87;91.04
53526;BME280;40551;50.478;19.378;2023-02-14T06:27:06;99689.16;;;1.88;91.02
53526;BME280;40551;50.478;19.378;2023-02-14T06:29:38;99690.14;;;1.82;91.18
53526;BME280;40551;50.478;19.378;2023-02-14T06:32:08;99694.17;;;1.85;91.40
53526;BME280;40551;50.478;19.378;2023-02-14T06:34:40;99688.42;;;1.82;91.41
53526;BME280;40551;50.478;19.378;2023-02-14T06:37:10;99693.15;;;1.85;91.29
53526;BME280;40551;50.478;19.378;2023-02-14T06:39:42;99693.54;;;1.83;91.65
53526;BME280;40551;50.478;19.378;2023-02-14T06:42:12;99698.59;;;1.87;91.51
53526;BME280;40551;50.478;19.378;2023-02-14T06:44:44;99700.19;;;1.84;91.39
53526;BME280;40551;50.478;19.378;2023-02-14T06:47:14;99699.95;;;1.87;91.55
53526;BME280;40551;50.478;19.378;2023-02-14T06:49:46;99702.23;;;1.85;91.54
53526;BME280;40551;50.478;19.378;2023-02-14T06:52:16;99699.22;;;1.89;91.52
53526;BME280;40551;50.478;19.378;2023-02-14T06:54:48;99700.78;;;1.88;91.62
53526;BME280;40551;50.478;19.378;2023-02-14T06:57:18;99699.29;;;1.93;91.78
53526;BME280;40551;50.478;19.378;2023-02-14T06:59:50;99707.16;;;1.94;91.71
53526;BME280;40551;50.478;19.378;2023-02-14T07:02:20;99705.81;;;2.00;91.82
53526;BME280;40551;50.478;19.378;2023-02-14T07:04:54;99703.59;;;2.00;91.48
53526;BME280;40551;50.478;19.378;2023-02-14T07:07:24;99706.73;;;2.05;91.66
53526;BME280;40551;50.478;19.378;2023-02-14T07:09:56;99707.98;;;2.03;91.50
53526;BME280;40551;50.478;19.378;2023-02-14T07:12:26;99708.18;;;2.08;91.55
53526;BME280;40551;50.478;19.378;2023-02-14T07:14:58;99710.75;;;2.08;91.60
53526;BME280;40551;50.478;19.378;2023-02-14T07:17:28;99712.00;;;2.14;91.39
53526;BME280;40551;50.478;19.378;2023-02-14T07:19:59;99712.02;;;2.13;91.60
53526;BME280;40551;50.478;19.378;2023-02-14T07:22:30;99711.73;;;2.18;91.56
53526;BME280;40551;50.478;19.378;2023-02-14T07:25:01;99708.98;;;2.18;91.64
53526;BME280;40551;50.478;19.378;2023-02-14T07:27:33;99710.36;;;2.24;91.72
53526;BME280;40551;50.478;19.378;2023-02-14T07:30:07;99708.02;;;2.30;91.54
53526;BME280;40551;50.478;19.378;2023-02-14T07:32:40;99708.77;;;2.33;91.15
53526;BME280;40551;50.478;19.378;2023-02-14T07:35:12;99712.96;;;2.37;91.34
53526;BME280;40551;50.478;19.378;2023-02-14T07:37:44;99716.12;;;2.41;91.09
53526;BME280;40551;50.478;19.378;2023-02-14T07:40:15;99713.64;;;2.45;91.35
53526;BME280;40551;50.478;19.378;2023-02-14T07:42:52;99711.96;;;2.43;91.23
53526;BME280;40551;50.478;19.378;2023-02-14T07:45:25;99710.15;;;2.47;91.49
53526;BME280;40551;50.478;19.378;2023-02-14T07:47:56;99711.77;;;2.51;91.14
53526;BME280;40551;50.478;19.378;2023-02-14T07:50:31;99710.95;;;2.56;91.24
53526;BME280;40551;50.478;19.378;2023-02-14T07:53:03;99704.02;;;2.59;91.02
53526;BME280;40551;50.478;19.378;2023-02-14T07:55:33;99706.34;;;2.62;91.21
53526;BME280;40551;50.478;19.378;2023-02-14T07:58:05;99715.09;;;2.62;91.07
53526;BME280;40551;50.478;19.378;2023-02-14T08:00:35;99716.67;;;2.67;91.00
53526;BME280;40551;50.478;19.378;2023-02-14T08:03:07;99710.67;;;2.66;91.24
53526;BME280;40551;50.478;19.378;2023-02-14T08:05:39;99717.20;;;2.73;91.00
53526;BME280;40551;50.478;19.378;2023-02-14T08:08:10;99714.84;;;2.78;91.04
53526;BME280;40551;50.478;19.378;2023-02-14T08:10:41;99714.36;;;2.83;91.02
53526;BME280;40551;50.478;19.378;2023-02-14T08:13:12;99707.02;;;2.82;90.84
53526;BME280;40551;50.478;19.378;2023-02-14T08:15:42;99713.06;;;2.87;90.61
53526;BME280;40551;50.478;19.378;2023-02-14T08:18:34;99717.16;;;2.87;90.81
53526;BME280;40551;50.478;19.378;2023-02-14T08:21:08;99716.52;;;2.92;90.37
53526;BME280;40551;50.478;19.378;2023-02-14T08:23:40;99722.41;;;2.96;90.45
53526;BME280;40551;50.478;19.378;2023-02-14T08:26:12;99724.59;;;2.98;90.34
53526;BME280;40551;50.478;19.378;2023-02-14T08:28:45;99721.39;;;3.02;90.20
53526;BME280;40551;50.478;19.378;2023-02-14T08:31:21;99722.83;;;3.06;90.12
53526;BME280;40551;50.478;19.378;2023-02-14T08:34:05;99723.98;;;3.01;90.15
53526;BME280;40551;50.478;19.378;2023-02-14T08:36:37;99723.20;;;3.04;90.02
53526;BME280;40551;50.478;19.378;2023-02-14T08:39:08;99727.05;;;3.08;89.92
53526;BME280;40551;50.478;19.378;2023-02-14T08:41:40;99729.54;;;3.11;90.06
53526;BME280;40551;50.478;19.378;2023-02-14T08:44:10;99729.75;;;3.16;90.00
53526;BME280;40551;50.478;19.378;2023-02-14T08:46:42;99734.08;;;3.15;90.02
53526;BME280;40551;50.478;19.378;2023-02-14T08:49:14;99733.09;;;3.19;89.80
53526;BME280;40551;50.478;19.378;2023-02-14T08:51:46;99736.41;;;3.23;89.64
53526;BME280;40551;50.478;19.378;2023-02-14T08:54:17;99740.88;;;3.29;89.96
53526;BME280;40551;50.478;19.378;2023-02-14T08:56:47;99739.17;;;3.35;89.72
53526;BME280;40551;50.478;19.378;2023-02-14T08:59:19;99737.15;;;3.33;89.60
53526;BME280;40551;50.478;19.378;2023-02-14T09:01:49;99741.98;;;3.39;89.69
53526;BME280;40551;50.478;19.378;2023-02-14T09:04:21;99742.52;;;3.38;89.46
53526;BME280;40551;50.478;19.378;2023-02-14T09:06:53;99744.42;;;3.43;89.46
53526;BME280;40551;50.478;19.378;2023-02-14T09:09:23;99741.09;;;3.46;89.12
53526;BME280;40551;50.478;19.378;2023-02-14T09:11:55;99745.61;;;3.44;89.21
53526;BME280;40551;50.478;19.378;2023-02-14T09:14:27;99745.02;;;3.47;89.09
53526;BME280;40551;50.478;19.378;2023-02-14T09:17:01;99741.64;;;3.51;88.97
53526;BME280;40551;50.478;19.378;2023-02-14T09:19:35;99746.80;;;3.56;89.06
53526;BME280;40551;50.478;19.378;2023-02-14T09:22:08;99750.31;;;3.59;88.86
53526;BME280;40551;50.478;19.378;2023-02-14T09:24:41;99748.30;;;3.63;88.93
53526;BME280;40551;50.478;19.378;2023-02-14T09:27:12;99744.44;;;3.67;88.74
53526;BME280;40551;50.478;19.378;2023-02-14T09:29:43;99740.65;;;3.67;88.44
53526;BME280;40551;50.478;19.378;2023-02-14T09:32:15;99747.98;;;3.62;88.54
53526;BME280;40551;50.478;19.378;2023-02-14T09:34:47;99747.61;;;3.64;88.25
53526;BME280;40551;50.478;19.378;2023-02-14T09:37:36;99748.59;;;3.65;88.28
53526;BME280;40551;50.478;19.378;2023-02-14T09:40:07;99753.33;;;3.67;88.41
53526;BME280;40551;50.478;19.378;2023-02-14T09:42:47;99753.89;;;3.66;88.33
53526;BME280;40551;50.478;19.378;2023-02-14T09:45:23;99751.74;;;3.69;88.35
53526;BME280;40551;50.478;19.378;2023-02-14T09:47:58;99752.67;;;3.72;87.88
53526;BME280;40551;50.478;19.378;2023-02-14T09:50:35;99754.32;;;3.74;87.86
53526;BME280;40551;50.478;19.378;2023-02-14T09:53:19;99753.20;;;3.77;88.06
53526;BME280;40551;50.478;19.378;2023-02-14T09:55:58;99754.45;;;3.82;88.17
53526;BME280;40551;50.478;19.378;2023-02-14T09:58:34;99757.95;;;3.86;87.74
53526;BME280;40551;50.478;19.378;2023-02-14T10:01:16;99752.95;;;3.87;87.71
53526;BME280;40551;50.478;19.378;2023-02-14T10:06:51;99757.61;;;3.90;87.50
53526;BME280;40551;50.478;19.378;2023-02-14T10:09:41;99752.77;;;3.92;87.26
53526;BME280;40551;50.478;19.378;2023-02-14T10:12:22;99750.44;;;3.95;87.26
53526;BME280;40551;50.478;19.378;2023-02-14T10:14:58;99749.43;;;4.00;87.48
53526;BME280;40551;50.478;19.378;2023-02-14T10:17:37;99751.14;;;4.06;87.55
53526;BME280;40551;50.478;19.378;2023-02-14T10:20:21;99742.40;;;4.11;87.27
53526;BME280;40551;50.478;19.378;2023-02-14T10:23:00;99744.66;;;4.15;87.27
53526;BME280;40551;50.478;19.378;2023-02-14T10:25:40;99744.55;;;4.19;86.99
53526;BME280;40551;50.478;19.378;2023-02-14T10:28:14;99744.27;;;4.22;86.89
53526;BME280;40551;50.478;19.378;2023-02-14T10:30:54;99737.36;;;4.23;86.42
53526;BME280;40551;50.478;19.378;2023-02-14T10:33:33;99734.09;;;4.24;86.35
53526;BME280;40551;50.478;19.378;2023-02-14T10:36:12;99735.64;;;4.29;86.59
53526;BME280;40551;50.478;19.378;2023-02-14T10:38:55;99732.45;;;4.32;86.30
53526;BME280;40551;50.478;19.378;2023-02-14T10:41:34;99730.86;;;4.34;86.11
53526;BME280;40551;50.478;19.378;2023-02-14T10:44:23;99732.55;;;4.34;85.81
53526;BME280;40551;50.478;19.378;2023-02-14T10:47:03;99735.75;;;4.36;85.85
53526;BME280;40551;50.478;19.378;2023-02-14T10:49:44;99738.64;;;4.37;85.47
53526;BME280;40551;50.478;19.378;2023-02-14T10:52:25;99734.92;;;4.35;84.60
53526;BME280;40551;50.478;19.378;2023-02-14T10:55:09;99735.69;;;4.33;84.92
53526;BME280;40551;50.478;19.378;2023-02-14T10:58:02;99734.46;;;4.34;84.75
53526;BME280;40551;50.478;19.378;2023-02-14T11:00:38;99734.92;;;4.35;84.71
53526;BME280;40551;50.478;19.378;2023-02-14T11:03:13;99733.19;;;4.36;84.46
53526;BME280;40551;50.478;19.378;2023-02-14T11:05:47;99738.30;;;4.37;84.42
53526;BME280;40551;50.478;19.378;2023-02-14T11:08:25;99736.27;;;4.36;84.09
53526;BME280;40551;50.478;19.378;2023-02-14T11:11:02;99735.44;;;4.35;83.92
53526;BME280;40551;50.478;19.378;2023-02-14T11:13:39;99732.52;;;4.35;83.86
53526;BME280;40551;50.478;19.378;2023-02-14T11:16:12;99731.39;;;4.33;83.70
53526;BME280;40551;50.478;19.378;2023-02-14T11:19:09;99729.46;;;4.34;84.03
53526;BME280;40551;50.478;19.378;2023-02-14T11:21:50;99731.45;;;4.36;83.99
53526;BME280;40551;50.478;19.378;2023-02-14T11:24:29;99727.98;;;4.38;83.78
53526;BME280;40551;50.478;19.378;2023-02-14T11:27:03;99726.98;;;4.37;83.42
53526;BME280;40551;50.478;19.378;2023-02-14T11:29:45;99724.31;;;4.39;83.65
53526;BME280;40551;50.478;19.378;2023-02-14T11:32:21;99721.51;;;4.41;83.58
53526;BME280;40551;50.478;19.378;2023-02-14T11:34:56;99717.31;;;4.43;83.65
53526;BME280;40551;50.478;19.378;2023-02-14T11:37:33;99718.99;;;4.44;83.26
53526;BME280;40551;50.478;19.378;2023-02-14T11:40:08;99718.74;;;4.47;83.34
53526;BME280;40551;50.478;19.378;2023-02-14T11:42:54;99717.26;;;4.50;83.59
53526;BME280;40551;50.478;19.378;2023-02-14T11:45:45;99714.55;;;4.54;83.28
53526;BME280;40551;50.478;19.378;2023-02-14T11:48:19;99712.00;;;4.53;82.91
53526;BME280;40551;50.478;19.378;2023-02-14T11:51:08;99706.13;;;4.54;82.80
53526;BME280;40551;50.478;19.378;2023-02-14T11:53:47;99699.53;;;4.56;82.94
53526;BME280;40551;50.478;19.378;2023-02-14T11:56:21;99698.08;;;4.58;82.98
53526;BME280;40551;50.478;19.378;2023-02-14T11:58:56;99693.33;;;4.62;83.27
53526;BME280;40551;50.478;19.378;2023-02-14T12:01:33;99692.44;;;4.67;82.92
53526;BME280;40551;50.478;19.378;2023-02-14T12:04:14;99694.16;;;4.73;83.17
53526;BME280;40551;50.478;19.378;2023-02-14T12:06:47;99697.48;;;4.76;82.79
53526;BME280;40551;50.478;19.378;2023-02-14T12:09:26;99697.81;;;4.76;82.50
53526;BME280;40551;50.478;19.378;2023-02-14T12:12:02;99694.16;;;4.77;82.35
53526;BME280;40551;50.478;19.378;2023-02-14T12:14:35;99692.02;;;4.80;82.56
53526;BME280;40551;50.478;19.378;2023-02-14T12:17:16;99692.70;;;4.84;82.67
53526;BME280;40551;50.478;19.378;2023-02-14T12:19:52;99690.38;;;4.87;82.36
53526;BME280;40551;50.478;19.378;2023-02-14T12:22:30;99687.58;;;4.89;82.43
53526;BME280;40551;50.478;19.378;2023-02-14T12:25:09;99679.08;;;4.91;82.21
53526;BME280;40551;50.478;19.378;2023-02-14T12:27:46;99675.10;;;4.92;82.19
53526;BME280;40551;50.478;19.378;2023-02-14T12:30:21;99666.42;;;4.94;82.04
53526;BME280;40551;50.478;19.378;2023-02-14T12:32:54;99666.44;;;4.94;81.93
53526;BME280;40551;50.478;19.378;2023-02-14T12:35:38;99666.57;;;4.94;81.93
53526;BME280;40551;50.478;19.378;2023-02-14T12:38:20;99671.77;;;4.93;81.64
53526;BME280;40551;50.478;19.378;2023-02-14T12:41:04;99668.33;;;4.94;81.66
53526;BME280;40551;50.478;19.378;2023-02-14T12:43:46;99662.86;;;4.92;81.38
53526;BME280;40551;50.478;19.378;2023-02-14T12:46:32;99661.52;;;4.91;81.18
53526;BME280;40551;50.478;19.378;2023-02-14T12:49:22;99652.02;;;4.93;81.64
53526;BME280;40551;50.478;19.378;2023-02-14T12:52:05;99651.85;;;4.92;81.09
53526;BME280;40551;50.478;19.378;2023-02-14T12:57:34;99649.77;;;4.88;81.37
53526;BME280;40551;50.478;19.378;2023-02-14T13:00:20;99650.20;;;4.91;81.04
53526;BME280;40551;50.478;19.378;2023-02-14T13:03:10;99651.72;;;4.92;81.17
53526;BME280;40551;50.478;19.378;2023-02-14T13:05:54;99652.70;;;4.93;81.19
53526;BME280;40551;50.478;19.378;2023-02-14T13:08:41;99645.37;;;4.96;80.95
53526;BME280;40551;50.478;19.378;2023-02-14T13:11:20;99644.44;;;4.98;80.75
53526;BME280;40551;50.478;19.378;2023-02-14T13:14:09;99645.84;;;5.02;81.00
53526;BME280;40551;50.478;19.378;2023-02-14T13:16:51;99646.86;;;5.02;80.65
53526;BME280;40551;50.478;19.378;2023-02-14T13:19:33;99644.29;;;5.02;80.30
53526;BME280;40551;50.478;19.378;2023-02-14T13:22:13;99641.20;;;5.01;80.50
53526;BME280;40551;50.478;19.378;2023-02-14T13:24:50;99643.80;;;5.01;80.39
53526;BME280;40551;50.478;19.378;2023-02-14T13:27:24;99643.59;;;5.02;80.46
53526;BME280;40551;50.478;19.378;2023-02-14T13:30:01;99636.03;;;5.02;79.99
53526;BME280;40551;50.478;19.378;2023-02-14T13:32:39;99633.33;;;5.01;79.81
53526;BME280;40551;50.478;19.378;2023-02-14T13:35:17;99634.80;;;4.98;79.73
53526;BME280;40551;50.478;19.378;2023-02-14T13:37:52;99632.28;;;4.96;79.75
53526;BME280;40551;50.478;19.378;2023-02-14T13:40:27;99635.84;;;4.98;79.91
53526;BME280;40551;50.478;19.378;2023-02-14T13:43:00;99633.11;;;4.97;79.75
53526;BME280;40551;50.478;19.378;2023-02-14T13:45:54;99629.04;;;4.96;79.86
53526;BME280;40551;50.478;19.378;2023-02-14T13:48:27;99634.89;;;4.96;80.09
53526;BME280;40551;50.478;19.378;2023-02-14T13:51:01;99637.70;;;4.94;79.80